sensor_id;sensor_type;location;lat;lon;timestamp;temperature;humidity
70051;SHT30;57391;51.306;22.680;2023-04-29T00:00:37;6.92;56.00
70051;SHT30;57391;51.306;22.680;2023-04-29T00:03:15;6.91;56.06
70051;SHT30;57391;51.306;22.680;2023-04-29T00:05:43;6.89;56.12
70051;SHT30;57391;51.306;22.680;2023-04-29T00:08:10;6.87;56.36
70051;SHT30;57391;51.306;22.680;2023-04-29T00:10:37;6.82;56.73
70051;SHT30;57391;51.306;22.680;2023-04-29T00:13:04;6.75;56.98
70051;SHT30;57391;51.306;22.680;2023-04-29T00:15:32;6.70;57.25
70051;SHT30;57391;51.306;22.680;2023-04-29T00:17:59;6.63;57.57
70051;SHT30;57391;51.306;22.680;2023-04-29T00:20:38;6.55;57.83
70051;SHT30;57391;51.306;22.680;2023-04-29T00:23:06;6.49;58.09
70051;SHT30;57391;51.306;22.680;2023-04-29T00:25:33;6.40;58.34
70051;SHT30;57391;51.306;22.680;2023-04-29T00:28:00;6.29;58.69
70051;SHT30;57391;51.306;22.680;2023-04-29T00:30:28;6.17;59.04
70051;SHT30;57391;51.306;22.680;2023-04-29T00:32:55;6.05;59.37
70051;SHT30;57391;51.306;22.680;2023-04-29T00:35:22;5.95;59.71
70051;SHT30;57391;51.306;22.680;2023-04-29T00:37:49;5.86;60.05
70051;SHT30;57391;51.306;22.680;2023-04-29T00:40:16;5.77;60.44
70051;SHT30;57391;51.306;22.680;2023-04-29T00:42:43;5.67;60.87
70051;SHT30;57391;51.306;22.680;2023-04-29T00:45:11;5.57;61.17
70051;SHT30;57391;51.306;22.680;2023-04-29T00:47:37;5.49;61.50
70051;SHT30;57391;51.306;22.680;2023-04-29T00:50:05;5.43;61.96
70051;SHT30;57391;51.306;22.680;2023-04-29T00:52:34;5.35;62.23
70051;SHT30;57391;51.306;22.680;2023-04-29T00:55:04;5.29;62.56
70051;SHT30;57391;51.306;22.680;2023-04-29T00:57:34;5.23;62.84
70051;SHT30;57391;51.306;22.680;2023-04-29T01:00:01;5.16;63.14
70051;SHT30;57391;51.306;22.680;2023-04-29T01:02:29;5.09;63.47
70051;SHT30;57391;51.306;22.680;2023-04-29T01:04:56;5.01;63.83
70051;SHT30;57391;51.306;22.680;2023-04-29T01:10:02;4.86;64.40
70051;SHT30;57391;51.306;22.680;2023-04-29T01:12:57;4.80;64.69
70051;SHT30;57391;51.306;22.680;2023-04-29T01:18:22;4.68;65.26
70051;SHT30;57391;51.306;22.680;2023-04-29T01:20:57;4.62;65.51
70051;SHT30;57391;51.306;22.680;2023-04-29T01:23:25;4.59;65.66
70051;SHT30;57391;51.306;22.680;2023-04-29T01:25:55;4.55;65.80
70051;SHT30;57391;51.306;22.680;2023-04-29T01:28:50;4.51;66.05
70051;SHT30;57391;51.306;22.680;2023-04-29T01:31:43;4.44;66.29
70051;SHT30;57391;51.306;22.680;2023-04-29T01:34:29;4.42;66.39
70051;SHT30;57391;51.306;22.680;2023-04-29T01:37:13;4.42;66.32
70051;SHT30;57391;51.306;22.680;2023-04-29T01:39:56;4.45;66.20
70051;SHT30;57391;51.306;22.680;2023-04-29T01:42:43;4.47;66.25
70051;SHT30;57391;51.306;22.680;2023-04-29T01:45:19;4.48;66.23
70051;SHT30;57391;51.306;22.680;2023-04-29T01:47:48;4.50;66.09
70051;SHT30;57391;51.306;22.680;2023-04-29T01:50:22;4.52;66.24
70051;SHT30;57391;51.306;22.680;2023-04-29T01:52:49;4.50;66.27
70051;SHT30;57391;51.306;22.680;2023-04-29T01:55:16;4.49;66.33
70051;SHT30;57391;51.306;22.680;2023-04-29T01:57:54;4.46;66.34
70051;SHT30;57391;51.306;22.680;2023-04-29T02:00:44;4.43;66.49
70051;SHT30;57391;51.306;22.680;2023-04-29T02:03:11;4.40;66.58
70051;SHT30;57391;51.306;22.680;2023-04-29T02:05:45;4.36;66.81
70051;SHT30;57391;51.306;22.680;2023-04-29T02:08:12;4.31;67.07
70051;SHT30;57391;51.306;22.680;2023-04-29T02:10:50;4.23;67.39
70051;SHT30;57391;51.306;22.680;2023-04-29T02:13:31;4.14;67.77
70051;SHT30;57391;51.306;22.680;2023-04-29T02:16:06;4.08;68.05
70051;SHT30;57391;51.306;22.680;2023-04-29T02:18:35;4.01;68.28
70051;SHT30;57391;51.306;22.680;2023-04-29T02:21:04;3.95;68.57
70051;SHT30;57391;51.306;22.680;2023-04-29T02:23:33;3.90;68.71
70051;SHT30;57391;51.306;22.680;2023-04-29T02:26:01;3.85;68.97
70051;SHT30;57391;51.306;22.680;2023-04-29T02:28:32;3.82;69.10
70051;SHT30;57391;51.306;22.680;2023-04-29T02:31:00;3.78;69.19
70051;SHT30;57391;51.306;22.680;2023-04-29T02:33:27;3.74;69.40
70051;SHT30;57391;51.306;22.680;2023-04-29T02:35:54;3.71;69.43
70051;SHT30;57391;51.306;22.680;2023-04-29T02:38:22;3.69;69.57
70051;SHT30;57391;51.306;22.680;2023-04-29T02:40:49;3.65;69.75
70051;SHT30;57391;51.306;22.680;2023-04-29T02:43:17;3.62;69.83
70051;SHT30;57391;51.306;22.680;2023-04-29T02:45:45;3.59;70.00
70051;SHT30;57391;51.306;22.680;2023-04-29T02:48:12;3.57;70.13
70051;SHT30;57391;51.306;22.680;2023-04-29T02:50:39;3.54;70.26
70051;SHT30;57391;51.306;22.680;2023-04-29T02:53:06;3.53;70.35
70051;SHT30;57391;51.306;22.680;2023-04-29T02:55:33;3.51;70.42
70051;SHT30;57391;51.306;22.680;2023-04-29T02:58:04;3.49;70.54
70051;SHT30;57391;51.306;22.680;2023-04-29T03:00:31;3.48;70.66
70051;SHT30;57391;51.306;22.680;2023-04-29T03:02:59;3.48;70.70
70051;SHT30;57391;51.306;22.680;2023-04-29T03:05:26;3.48;70.71
70051;SHT30;57391;51.306;22.680;2023-04-29T03:07:53;3.48;70.80
70051;SHT30;57391;51.306;22.680;2023-04-29T03:10:21;3.48;70.78
70051;SHT30;57391;51.306;22.680;2023-04-29T03:12:48;3.48;70.82
70051;SHT30;57391;51.306;22.680;2023-04-29T03:15:15;3.50;70.88
70051;SHT30;57391;51.306;22.680;2023-04-29T03:17:43;3.50;70.91
70051;SHT30;57391;51.306;22.680;2023-04-29T03:20:12;3.51;70.89
70051;SHT30;57391;51.306;22.680;2023-04-29T03:22:40;3.54;70.81
70051;SHT30;57391;51.306;22.680;2023-04-29T03:25:08;3.58;70.82
70051;SHT30;57391;51.306;22.680;2023-04-29T03:27:36;3.61;70.80
70051;SHT30;57391;51.306;22.680;2023-04-29T03:30:04;3.64;70.80
70051;SHT30;57391;51.306;22.680;2023-04-29T03:32:33;3.69;70.80
70051;SHT30;57391;51.306;22.680;2023-04-29T03:35:00;3.74;70.72
70051;SHT30;57391;51.306;22.680;2023-04-29T03:37:40;3.81;70.65
70051;SHT30;57391;51.306;22.680;2023-04-29T03:40:22;3.90;70.47
70051;SHT30;57391;51.306;22.680;2023-04-29T03:42:49;4.00;70.30
70051;SHT30;57391;51.306;22.680;2023-04-29T03:45:16;4.11;70.07
70051;SHT30;57391;51.306;22.680;2023-04-29T03:47:44;4.21;69.87
70051;SHT30;57391;51.306;22.680;2023-04-29T03:50:11;4.30;69.68
70051;SHT30;57391;51.306;22.680;2023-04-29T03:52:39;4.46;69.41
70051;SHT30;57391;51.306;22.680;2023-04-29T03:55:10;4.83;68.75
70051;SHT30;57391;51.306;22.680;2023-04-29T03:57:38;5.24;67.92
70051;SHT30;57391;51.306;22.680;2023-04-29T04:00:05;5.54;67.16
70051;SHT30;57391;51.306;22.680;2023-04-29T04:02:40;5.78;66.40
70051;SHT30;57391;51.306;22.680;2023-04-29T04:05:08;6.38;65.05
70051;SHT30;57391;51.306;22.680;2023-04-29T04:07:36;7.36;63.20
70051;SHT30;57391;51.306;22.680;2023-04-29T04:10:35;8.39;60.38
70051;SHT30;57391;51.306;22.680;2023-04-29T04:13:07;9.18;58.35
70051;SHT30;57391;51.306;22.680;2023-04-29T04:15:35;9.95;56.26
70051;SHT30;57391;51.306;22.680;2023-04-29T04:18:02;10.55;54.66
70051;SHT30;57391;51.306;22.680;2023-04-29T04:20:29;10.97;53.21
70051;SHT30;57391;51.306;22.680;2023-04-29T04:22:56;11.23;52.43
70051;SHT30;57391;51.306;22.680;2023-04-29T04:25:26;11.33;52.07
70051;SHT30;57391;51.306;22.680;2023-04-29T04:27:57;11.79;51.41
70051;SHT30;57391;51.306;22.680;2023-04-29T04:30:45;12.09;49.69
70051;SHT30;57391;51.306;22.680;2023-04-29T04:33:12;11.90;49.22
70051;SHT30;57391;51.306;22.680;2023-04-29T04:35:39;11.44;49.63
70051;SHT30;57391;51.306;22.680;2023-04-29T04:38:07;10.95;50.24
70051;SHT30;57391;51.306;22.680;2023-04-29T04:40:35;10.51;51.38
70051;SHT30;57391;51.306;22.680;2023-04-29T04:43:22;10.23;52.23
70051;SHT30;57391;51.306;22.680;2023-04-29T04:45:49;10.08;52.63
70051;SHT30;57391;51.306;22.680;2023-04-29T04:48:17;9.99;53.16
70051;SHT30;57391;51.306;22.680;2023-04-29T04:50:44;10.04;53.40
70051;SHT30;57391;51.306;22.680;2023-04-29T04:53:11;10.08;52.94
70051;SHT30;57391;51.306;22.680;2023-04-29T04:56:05;9.86;53.79
70051;SHT30;57391;51.306;22.680;2023-04-29T04:58:34;9.69;54.66
70051;SHT30;57391;51.306;22.680;2023-04-29T05:01:01;9.68;55.08
70051;SHT30;57391;51.306;22.680;2023-04-29T05:03:28;9.76;55.08
70051;SHT30;57391;51.306;22.680;2023-04-29T05:05:56;9.73;55.04
70051;SHT30;57391;51.306;22.680;2023-04-29T05:08:27;9.58;55.44
70051;SHT30;57391;51.306;22.680;2023-04-29T05:10:55;9.58;55.83
70051;SHT30;57391;51.306;22.680;2023-04-29T05:13:23;9.58;55.47
70051;SHT30;57391;51.306;22.680;2023-04-29T05:15:53;9.59;55.47
70051;SHT30;57391;51.306;22.680;2023-04-29T05:18:26;9.60;55.42
70051;SHT30;57391;51.306;22.680;2023-04-29T05:20:53;9.66;55.77
70051;SHT30;57391;51.306;22.680;2023-04-29T05:23:20;9.73;55.15
70051;SHT30;57391;51.306;22.680;2023-04-29T05:25:48;9.77;54.87
70051;SHT30;57391;51.306;22.680;2023-04-29T05:28:16;9.85;54.76
70051;SHT30;57391;51.306;22.680;2023-04-29T05:30:44;9.91;54.45
70051;SHT30;57391;51.306;22.680;2023-04-29T05:33:12;10.02;54.22
70051;SHT30;57391;51.306;22.680;2023-04-29T05:35:39;10.19;53.89
70051;SHT30;57391;51.306;22.680;2023-04-29T05:38:06;10.36;53.56
70051;SHT30;57391;51.306;22.680;2023-04-29T05:40:39;10.46;53.28
70051;SHT30;57391;51.306;22.680;2023-04-29T05:43:25;10.45;53.36
70051;SHT30;57391;51.306;22.680;2023-04-29T05:45:53;10.41;53.67
70051;SHT30;57391;51.306;22.680;2023-04-29T05:48:20;10.44;54.03
70051;SHT30;57391;51.306;22.680;2023-04-29T05:50:48;10.46;53.92
70051;SHT30;57391;51.306;22.680;2023-04-29T05:53:15;10.47;53.82
70051;SHT30;57391;51.306;22.680;2023-04-29T05:55:45;10.51;53.89
70051;SHT30;57391;51.306;22.680;2023-04-29T05:58:12;10.58;53.87
70051;SHT30;57391;51.306;22.680;2023-04-29T06:00:41;10.63;53.40
70051;SHT30;57391;51.306;22.680;2023-04-29T06:03:13;10.74;53.61
70051;SHT30;57391;51.306;22.680;2023-04-29T06:05:40;10.85;53.49
70051;SHT30;57391;51.306;22.680;2023-04-29T06:08:37;10.97;53.61
70051;SHT30;57391;51.306;22.680;2023-04-29T06:11:14;11.09;53.32
70051;SHT30;57391;51.306;22.680;2023-04-29T06:13:41;11.26;53.13
70051;SHT30;57391;51.306;22.680;2023-04-29T06:16:08;11.40;52.25
70051;SHT30;57391;51.306;22.680;2023-04-29T06:18:38;11.58;52.30
70051;SHT30;57391;51.306;22.680;2023-04-29T06:21:05;11.74;52.20
70051;SHT30;57391;51.306;22.680;2023-04-29T06:23:33;11.88;52.09
70051;SHT30;57391;51.306;22.680;2023-04-29T06:26:04;12.01;51.77
70051;SHT30;57391;51.306;22.680;2023-04-29T06:28:32;12.13;50.99
70051;SHT30;57391;51.306;22.680;2023-04-29T06:31:01;12.24;50.62
70051;SHT30;57391;51.306;22.680;2023-04-29T06:33:28;12.35;50.14
70051;SHT30;57391;51.306;22.680;2023-04-29T06:35:56;12.46;50.91
70051;SHT30;57391;51.306;22.680;2023-04-29T06:38:41;12.57;50.14
70051;SHT30;57391;51.306;22.680;2023-04-29T06:41:27;12.60;49.95
70051;SHT30;57391;51.306;22.680;2023-04-29T06:44:26;12.66;50.73
70051;SHT30;57391;51.306;22.680;2023-04-29T06:47:23;12.72;50.36
70051;SHT30;57391;51.306;22.680;2023-04-29T06:50:10;12.68;51.19
70051;SHT30;57391;51.306;22.680;2023-04-29T06:52:37;12.80;51.46
70051;SHT30;57391;51.306;22.680;2023-04-29T06:55:05;12.93;51.46
70051;SHT30;57391;51.306;22.680;2023-04-29T06:57:32;13.02;50.04
70051;SHT30;57391;51.306;22.680;2023-04-29T06:59:59;13.04;49.24
70051;SHT30;57391;51.306;22.680;2023-04-29T07:02:26;13.07;49.10
70051;SHT30;57391;51.306;22.680;2023-04-29T07:04:54;13.13;48.51
70051;SHT30;57391;51.306;22.680;2023-04-29T07:07:21;13.16;47.52
70051;SHT30;57391;51.306;22.680;2023-04-29T07:09:48;13.23;47.07
70051;SHT30;57391;51.306;22.680;2023-04-29T07:12:18;13.36;47.19
70051;SHT30;57391;51.306;22.680;2023-04-29T07:14:46;13.47;46.03
70051;SHT30;57391;51.306;22.680;2023-04-29T07:17:13;13.57;46.74
70051;SHT30;57391;51.306;22.680;2023-04-29T07:19:41;13.70;45.88
70051;SHT30;57391;51.306;22.680;2023-04-29T07:22:10;13.80;45.19
70051;SHT30;57391;51.306;22.680;2023-04-29T07:24:38;13.91;44.86
70051;SHT30;57391;51.306;22.680;2023-04-29T07:27:06;13.98;44.55
70051;SHT30;57391;51.306;22.680;2023-04-29T07:29:33;14.05;45.11
70051;SHT30;57391;51.306;22.680;2023-04-29T07:32:00;14.14;44.26
70051;SHT30;57391;51.306;22.680;2023-04-29T07:34:28;14.19;44.88
70051;SHT30;57391;51.306;22.680;2023-04-29T07:36:55;14.25;44.75
70051;SHT30;57391;51.306;22.680;2023-04-29T07:39:23;14.32;45.90
70051;SHT30;57391;51.306;22.680;2023-04-29T07:41:55;14.40;46.06
70051;SHT30;57391;51.306;22.680;2023-04-29T07:44:22;14.48;45.65
70051;SHT30;57391;51.306;22.680;2023-04-29T07:46:49;14.51;44.13
70051;SHT30;57391;51.306;22.680;2023-04-29T07:49:17;14.50;44.11
70051;SHT30;57391;51.306;22.680;2023-04-29T07:51:44;14.48;43.16
70051;SHT30;57391;51.306;22.680;2023-04-29T07:54:11;14.46;43.92
70051;SHT30;57391;51.306;22.680;2023-04-29T07:56:39;14.46;42.87
70051;SHT30;57391;51.306;22.680;2023-04-29T07:59:07;14.46;42.42
70051;SHT30;57391;51.306;22.680;2023-04-29T08:01:34;14.53;43.30
70051;SHT30;57391;51.306;22.680;2023-04-29T08:04:02;14.69;44.53
70051;SHT30;57391;51.306;22.680;2023-04-29T08:06:32;14.94;45.34
70051;SHT30;57391;51.306;22.680;2023-04-29T08:09:02;15.21;44.96
70051;SHT30;57391;51.306;22.680;2023-04-29T08:11:29;15.38;44.32
70051;SHT30;57391;51.306;22.680;2023-04-29T08:13:57;15.57;43.72
70051;SHT30;57391;51.306;22.680;2023-04-29T08:16:25;15.84;44.89
70051;SHT30;57391;51.306;22.680;2023-04-29T08:18:53;16.04;44.17
70051;SHT30;57391;51.306;22.680;2023-04-29T08:21:27;16.15;43.11
70051;SHT30;57391;51.306;22.680;2023-04-29T08:23:54;16.11;42.09
70051;SHT30;57391;51.306;22.680;2023-04-29T08:26:22;15.93;41.21
70051;SHT30;57391;51.306;22.680;2023-04-29T08:28:52;15.64;42.60
70051;SHT30;57391;51.306;22.680;2023-04-29T08:31:20;15.53;42.56
70051;SHT30;57391;51.306;22.680;2023-04-29T08:33:54;15.43;41.68
70051;SHT30;57391;51.306;22.680;2023-04-29T08:36:24;15.47;42.22
70051;SHT30;57391;51.306;22.680;2023-04-29T08:38:56;15.61;42.63
70051;SHT30;57391;51.306;22.680;2023-04-29T08:41:24;15.77;41.73
70051;SHT30;57391;51.306;22.680;2023-04-29T08:43:52;15.91;42.33
70051;SHT30;57391;51.306;22.680;2023-04-29T08:46:19;15.94;42.15
70051;SHT30;57391;51.306;22.680;2023-04-29T08:48:48;15.85;42.34
70051;SHT30;57391;51.306;22.680;2023-04-29T08:51:17;15.75;43.24
70051;SHT30;57391;51.306;22.680;2023-04-29T08:53:44;15.73;43.20
70051;SHT30;57391;51.306;22.680;2023-04-29T08:56:15;15.77;43.74
70051;SHT30;57391;51.306;22.680;2023-04-29T08:58:46;15.81;43.88
70051;SHT30;57391;51.306;22.680;2023-04-29T09:01:27;15.82;42.22
70051;SHT30;57391;51.306;22.680;2023-04-29T09:04:08;15.92;41.55
70051;SHT30;57391;51.306;22.680;2023-04-29T09:06:45;16.01;41.09
70051;SHT30;57391;51.306;22.680;2023-04-29T09:09:14;16.18;40.92
70051;SHT30;57391;51.306;22.680;2023-04-29T09:11:59;16.25;39.44
70051;SHT30;57391;51.306;22.680;2023-04-29T09:14:26;16.32;39.96
70051;SHT30;57391;51.306;22.680;2023-04-29T09:16:59;16.38;38.94
70051;SHT30;57391;51.306;22.680;2023-04-29T09:19:30;16.32;38.13
70051;SHT30;57391;51.306;22.680;2023-04-29T09:22:03;16.27;37.71
70051;SHT30;57391;51.306;22.680;2023-04-29T09:24:33;16.23;37.80
70051;SHT30;57391;51.306;22.680;2023-04-29T09:27:01;16.29;38.79
70051;SHT30;57391;51.306;22.680;2023-04-29T09:29:29;16.37;38.94
70051;SHT30;57391;51.306;22.680;2023-04-29T09:31:58;16.48;38.91
70051;SHT30;57391;51.306;22.680;2023-04-29T09:34:32;16.50;37.96
70051;SHT30;57391;51.306;22.680;2023-04-29T09:37:02;16.39;38.11
70051;SHT30;57391;51.306;22.680;2023-04-29T09:39:48;16.31;38.30
70051;SHT30;57391;51.306;22.680;2023-04-29T09:42:16;16.27;37.20
70051;SHT30;57391;51.306;22.680;2023-04-29T09:44:43;16.28;37.83
70051;SHT30;57391;51.306;22.680;2023-04-29T09:47:10;16.33;37.77
70051;SHT30;57391;51.306;22.680;2023-04-29T09:49:40;16.36;37.48
70051;SHT30;57391;51.306;22.680;2023-04-29T09:55:28;16.47;37.35
70051;SHT30;57391;51.306;22.680;2023-04-29T09:57:55;16.54;38.08
70051;SHT30;57391;51.306;22.680;2023-04-29T10:00:23;16.64;38.30
70051;SHT30;57391;51.306;22.680;2023-04-29T10:02:54;16.74;37.73
70051;SHT30;57391;51.306;22.680;2023-04-29T10:05:26;16.85;37.76
70051;SHT30;57391;51.306;22.680;2023-04-29T10:07:56;16.93;38.46
70051;SHT30;57391;51.306;22.680;2023-04-29T10:10:25;17.05;37.71
70051;SHT30;57391;51.306;22.680;2023-04-29T10:12:55;17.00;37.02
70051;SHT30;57391;51.306;22.680;2023-04-29T10:15:34;17.05;38.35
70051;SHT30;57391;51.306;22.680;2023-04-29T10:18:19;17.12;38.85
70051;SHT30;57391;51.306;22.680;2023-04-29T10:20:51;17.23;38.62
70051;SHT30;57391;51.306;22.680;2023-04-29T10:23:22;17.26;37.41
70051;SHT30;57391;51.306;22.680;2023-04-29T10:25:52;17.30;37.76
70051;SHT30;57391;51.306;22.680;2023-04-29T10:28:21;17.24;36.65
70051;SHT30;57391;51.306;22.680;2023-04-29T10:30:51;17.18;36.88
70051;SHT30;57391;51.306;22.680;2023-04-29T10:33:21;17.20;37.37
70051;SHT30;57391;51.306;22.680;2023-04-29T10:35:49;17.20;37.37
70051;SHT30;57391;51.306;22.680;2023-04-29T10:38:22;17.16;36.99
70051;SHT30;57391;51.306;22.680;2023-04-29T10:41:20;17.17;37.96
70051;SHT30;57391;51.306;22.680;2023-04-29T10:43:52;17.15;36.94
70051;SHT30;57391;51.306;22.680;2023-04-29T10:46:22;17.09;37.78
70051;SHT30;57391;51.306;22.680;2023-04-29T10:49:00;17.06;37.50
70051;SHT30;57391;51.306;22.680;2023-04-29T10:51:33;17.03;37.76
70051;SHT30;57391;51.306;22.680;2023-04-29T10:56:46;16.99;38.88
70051;SHT30;57391;51.306;22.680;2023-04-29T11:01:49;17.06;38.37
70051;SHT30;57391;51.306;22.680;2023-04-29T11:04:19;17.14;39.04
70051;SHT30;57391;51.306;22.680;2023-04-29T11:06:54;17.25;38.28
70051;SHT30;57391;51.306;22.680;2023-04-29T11:09:27;17.31;36.96
70051;SHT30;57391;51.306;22.680;2023-04-29T11:12:04;17.29;37.48
70051;SHT30;57391;51.306;22.680;2023-04-29T11:17:11;17.30;37.59
70051;SHT30;57391;51.306;22.680;2023-04-29T11:19:43;17.25;37.53
70051;SHT30;57391;51.306;22.680;2023-04-29T11:24:47;17.17;37.92
70051;SHT30;57391;51.306;22.680;2023-04-29T11:27:17;17.22;38.06
70051;SHT30;57391;51.306;22.680;2023-04-29T11:29:48;17.26;38.42
70051;SHT30;57391;51.306;22.680;2023-04-29T11:32:20;17.21;37.26
70051;SHT30;57391;51.306;22.680;2023-04-29T11:34:51;17.16;37.21
70051;SHT30;57391;51.306;22.680;2023-04-29T11:37:23;17.20;37.73
70051;SHT30;57391;51.306;22.680;2023-04-29T11:39:57;17.18;37.77
70051;SHT30;57391;51.306;22.680;2023-04-29T11:42:29;17.22;38.42
70051;SHT30;57391;51.306;22.680;2023-04-29T11:44:56;17.35;38.12
70051;SHT30;57391;51.306;22.680;2023-04-29T11:47:26;17.47;37.44
70051;SHT30;57391;51.306;22.680;2023-04-29T11:50:04;17.47;37.36
70051;SHT30;57391;51.306;22.680;2023-04-29T11:52:36;17.51;37.62
70051;SHT30;57391;51.306;22.680;2023-04-29T11:55:09;17.55;37.74
70051;SHT30;57391;51.306;22.680;2023-04-29T11:57:37;17.52;37.74
70051;SHT30;57391;51.306;22.680;2023-04-29T12:00:09;17.52;38.51
70051;SHT30;57391;51.306;22.680;2023-04-29T12:02:38;17.59;38.15
70051;SHT30;57391;51.306;22.680;2023-04-29T12:05:12;17.56;37.79
70051;SHT30;57391;51.306;22.680;2023-04-29T12:07:41;17.48;37.53
70051;SHT30;57391;51.306;22.680;2023-04-29T12:10:10;17.43;38.01
70051;SHT30;57391;51.306;22.680;2023-04-29T12:12:38;17.37;38.23
70051;SHT30;57391;51.306;22.680;2023-04-29T12:15:07;17.35;38.45
70051;SHT30;57391;51.306;22.680;2023-04-29T12:17:36;17.39;38.15
70051;SHT30;57391;51.306;22.680;2023-04-29T12:20:05;17.41;38.08
70051;SHT30;57391;51.306;22.680;2023-04-29T12:22:37;17.37;37.89
70051;SHT30;57391;51.306;22.680;2023-04-29T12:25:05;17.33;37.69
70051;SHT30;57391;51.306;22.680;2023-04-29T12:27:34;17.29;38.42
70051;SHT30;57391;51.306;22.680;2023-04-29T12:30:05;17.32;38.96
70051;SHT30;57391;51.306;22.680;2023-04-29T12:32:38;17.35;38.69
70051;SHT30;57391;51.306;22.680;2023-04-29T12:35:05;17.30;37.46
70051;SHT30;57391;51.306;22.680;2023-04-29T12:37:41;17.21;38.00
70051;SHT30;57391;51.306;22.680;2023-04-29T12:40:12;17.13;38.43
70051;SHT30;57391;51.306;22.680;2023-04-29T12:42:42;17.06;38.49
70051;SHT30;57391;51.306;22.680;2023-04-29T12:45:26;16.96;38.52
70051;SHT30;57391;51.306;22.680;2023-04-29T12:48:00;16.91;39.37
70051;SHT30;57391;51.306;22.680;2023-04-29T12:50:35;16.90;39.38
70051;SHT30;57391;51.306;22.680;2023-04-29T12:53:04;16.91;39.35
70051;SHT30;57391;51.306;22.680;2023-04-29T12:55:34;16.90;39.58
70051;SHT30;57391;51.306;22.680;2023-04-29T12:58:03;16.90;40.07
70051;SHT30;57391;51.306;22.680;2023-04-29T13:00:31;16.89;39.23
70051;SHT30;57391;51.306;22.680;2023-04-29T13:03:00;16.82;39.02
70051;SHT30;57391;51.306;22.680;2023-04-29T13:05:27;16.76;39.67
70051;SHT30;57391;51.306;22.680;2023-04-29T13:07:54;16.75;39.91
70051;SHT30;57391;51.306;22.680;2023-04-29T13:10:22;16.76;39.80
70051;SHT30;57391;51.306;22.680;2023-04-29T13:12:50;16.76;39.38
70051;SHT30;57391;51.306;22.680;2023-04-29T13:15:17;16.81;40.27
70051;SHT30;57391;51.306;22.680;2023-04-29T13:17:45;16.93;39.70
70051;SHT30;57391;51.306;22.680;2023-04-29T13:20:12;17.00;39.17
70051;SHT30;57391;51.306;22.680;2023-04-29T13:22:43;17.05;39.49
70051;SHT30;57391;51.306;22.680;2023-04-29T13:25:11;17.11;39.62
70051;SHT30;57391;51.306;22.680;2023-04-29T13:27:41;17.15;39.35
70051;SHT30;57391;51.306;22.680;2023-04-29T13:30:09;17.22;39.79
70051;SHT30;57391;51.306;22.680;2023-04-29T13:32:37;17.31;39.43
70051;SHT30;57391;51.306;22.680;2023-04-29T13:35:06;17.40;39.24
70051;SHT30;57391;51.306;22.680;2023-04-29T13:37:34;17.37;38.19
70051;SHT30;57391;51.306;22.680;2023-04-29T13:40:02;17.35;38.47
70051;SHT30;57391;51.306;22.680;2023-04-29T13:42:30;17.40;38.68
70051;SHT30;57391;51.306;22.680;2023-04-29T13:44:57;17.40;38.76
70051;SHT30;57391;51.306;22.680;2023-04-29T13:47:24;17.40;38.29
70051;SHT30;57391;51.306;22.680;2023-04-29T13:49:52;17.41;38.74
70051;SHT30;57391;51.306;22.680;2023-04-29T13:52:20;17.41;38.64
70051;SHT30;57391;51.306;22.680;2023-04-29T13:54:47;17.37;38.56
70051;SHT30;57391;51.306;22.680;2023-04-29T13:57:14;17.31;38.48
70051;SHT30;57391;51.306;22.680;2023-04-29T13:59:41;17.29;38.48
70051;SHT30;57391;51.306;22.680;2023-04-29T14:02:09;17.34;39.87
70051;SHT30;57391;51.306;22.680;2023-04-29T14:04:39;17.45;39.72
70051;SHT30;57391;51.306;22.680;2023-04-29T14:07:07;17.51;38.64
70051;SHT30;57391;51.306;22.680;2023-04-29T14:09:34;17.47;38.01
70051;SHT30;57391;51.306;22.680;2023-04-29T14:12:01;17.44;38.67
70051;SHT30;57391;51.306;22.680;2023-04-29T14:14:28;17.44;38.44
70051;SHT30;57391;51.306;22.680;2023-04-29T14:16:55;17.45;38.68
70051;SHT30;57391;51.306;22.680;2023-04-29T14:19:23;17.43;38.68
70051;SHT30;57391;51.306;22.680;2023-04-29T14:21:50;17.40;38.99
70051;SHT30;57391;51.306;22.680;2023-04-29T14:24:17;17.39;39.31
70051;SHT30;57391;51.306;22.680;2023-04-29T14:26:44;17.35;38.71
70051;SHT30;57391;51.306;22.680;2023-04-29T14:29:12;17.29;39.08
70051;SHT30;57391;51.306;22.680;2023-04-29T14:31:39;17.24;39.01
70051;SHT30;57391;51.306;22.680;2023-04-29T14:34:06;17.20;38.99
70051;SHT30;57391;51.306;22.680;2023-04-29T14:36:34;17.24;39.84
70051;SHT30;57391;51.306;22.680;2023-04-29T14:39:01;17.27;39.57
70051;SHT30;57391;51.306;22.680;2023-04-29T14:41:29;17.29;39.06
70051;SHT30;57391;51.306;22.680;2023-04-29T14:43:56;17.31;39.31
70051;SHT30;57391;51.306;22.680;2023-04-29T14:46:24;17.32;38.91
70051;SHT30;57391;51.306;22.680;2023-04-29T14:48:51;17.29;38.80
70051;SHT30;57391;51.306;22.680;2023-04-29T14:51:18;17.27;39.23
70051;SHT30;57391;51.306;22.680;2023-04-29T14:53:46;17.25;39.31
70051;SHT30;57391;51.306;22.680;2023-04-29T14:56:15;17.19;38.97
70051;SHT30;57391;51.306;22.680;2023-04-29T14:58:45;17.19;39.16
70051;SHT30;57391;51.306;22.680;2023-04-29T15:01:13;17.17;39.47
70051;SHT30;57391;51.306;22.680;2023-04-29T15:03:40;17.15;38.98
70051;SHT30;57391;51.306;22.680;2023-04-29T15:06:08;17.13;38.92
70051;SHT30;57391;51.306;22.680;2023-04-29T15:08:35;17.11;39.27
70051;SHT30;57391;51.306;22.680;2023-04-29T15:11:03;17.15;39.51
70051;SHT30;57391;51.306;22.680;2023-04-29T15:13:31;17.20;39.95
70051;SHT30;57391;51.306;22.680;2023-04-29T15:15:58;17.26;39.41
70051;SHT30;57391;51.306;22.680;2023-04-29T15:18:25;17.27;39.41
70051;SHT30;57391;51.306;22.680;2023-04-29T15:20:53;17.28;39.37
70051;SHT30;57391;51.306;22.680;2023-04-29T15:23:20;17.29;39.25
70051;SHT30;57391;51.306;22.680;2023-04-29T15:25:47;17.31;39.46
70051;SHT30;57391;51.306;22.680;2023-04-29T15:28:15;17.30;39.01
70051;SHT30;57391;51.306;22.680;2023-04-29T15:30:43;17.27;38.98
70051;SHT30;57391;51.306;22.680;2023-04-29T15:33:10;17.26;39.37
70051;SHT30;57391;51.306;22.680;2023-04-29T15:35:38;17.28;39.71
70051;SHT30;57391;51.306;22.680;2023-04-29T15:38:05;17.30;39.95
70051;SHT30;57391;51.306;22.680;2023-04-29T15:40:33;17.31;39.56
70051;SHT30;57391;51.306;22.680;2023-04-29T15:43:00;17.27;39.18
70051;SHT30;57391;51.306;22.680;2023-04-29T15:45:29;17.24;39.50
70051;SHT30;57391;51.306;22.680;2023-04-29T15:47:58;17.21;39.12
70051;SHT30;57391;51.306;22.680;2023-04-29T15:50:26;17.14;39.15
70051;SHT30;57391;51.306;22.680;2023-04-29T15:52:53;17.07;39.81
70051;SHT30;57391;51.306;22.680;2023-04-29T15:55:24;17.01;40.14
70051;SHT30;57391;51.306;22.680;2023-04-29T15:57:51;16.98;40.27